createdAt,value
2018-04-20T00:02:19.882Z,"    0"
2018-04-20T00:12:20.358Z,"    0"
2018-04-20T00:17:21.176Z,"    0"
2018-04-20T00:22:20.425Z,"    0"
2018-04-20T00:27:21.380Z,"    0"
2018-04-20T00:32:22.243Z,"    0"
2018-04-20T00:37:23.123Z,"    0"
2018-04-20T00:42:28.445Z,"    0"
2018-04-20T00:47:29.299Z,"    0"
2018-04-20T00:52:26.490Z,"    0"
2018-04-20T00:57:26.089Z,"    0"
2018-04-20T01:02:26.455Z,"    0"
2018-04-20T01:12:30.513Z,"    0"
2018-04-20T01:17:32.366Z,"    0"
2018-04-20T01:22:29.974Z,"    0"
2018-04-20T01:32:34.614Z,"    0"
2018-04-20T01:37:34.885Z,"    0"
2018-04-20T01:47:37.874Z,"    0"
2018-04-20T01:52:37.497Z,"    0"
2018-04-20T01:57:34.417Z,"    0"
2018-04-20T02:02:30.446Z,"    0"
2018-04-20T02:07:28.232Z,"    0"
2018-04-20T02:12:31.138Z,"    0"
2018-04-20T02:17:27.523Z,"    0"
2018-04-20T02:22:27.222Z,"    0"
2018-04-20T02:27:28.679Z,"    0"
2018-04-20T02:32:29.185Z,"    0"
2018-04-20T02:37:28.923Z,"    0"
2018-04-20T02:42:30.232Z,"    0"
2018-04-20T02:47:27.547Z,"    0"
2018-04-20T02:52:27.519Z,"    0"
2018-04-20T03:07:32.187Z,"    0"
2018-04-20T03:12:31.450Z,"    0"
2018-04-20T03:17:34.043Z,"    0"
2018-04-20T03:27:41.172Z,"    0"
2018-04-20T03:32:44.394Z,"    0"
2018-04-20T03:37:38.796Z,"    0"
2018-04-20T03:42:39.236Z,"    0"
2018-04-20T03:47:35.324Z,"    4"
2018-04-20T03:52:35.767Z,"    4"
2018-04-20T04:02:40.792Z,"   12"
2018-04-20T04:07:39.919Z,"   28"
2018-04-20T04:12:36.976Z,"   52"
2018-04-20T04:17:37.330Z,"   88"
2018-04-20T04:22:33.475Z,"  140"
2018-04-20T04:27:29.224Z,"  212"
2018-04-20T04:32:26.621Z,"  308"
2018-04-20T04:37:27.628Z,"  432"
2018-04-20T04:42:28.025Z,"  584"
2018-04-20T04:47:28.833Z,"  752"
2018-04-20T04:52:24.324Z,"  972"
2018-04-20T04:57:20.978Z," 1176"
2018-04-20T05:02:18.331Z," 1372"
2018-04-20T05:12:20.127Z," 1776"
2018-04-20T05:22:18.064Z," 2168"
2018-04-20T05:27:15.618Z," 2356"
2018-04-20T05:32:17.565Z," 2540"
2018-04-20T05:37:13.668Z," 2724"
2018-04-20T05:42:13.979Z," 2896"
2018-04-20T05:47:13.252Z," 3056"
2018-04-20T05:52:11.996Z," 3168"
2018-04-20T05:57:08.127Z," 3448"
2018-04-20T06:02:03.768Z," 3592"
2018-04-20T06:06:59.506Z," 4124"
2018-04-20T06:11:56.270Z," 3956"
2018-04-20T06:16:58.395Z," 4152"
2018-04-20T06:21:53.855Z," 5036"
2018-04-20T06:26:54.229Z," 4780"
2018-04-20T06:31:54.756Z," 4716"
2018-04-20T06:36:51.778Z," 4900"
2018-04-20T06:41:52.362Z," 5492"
2018-04-20T06:46:48.424Z," 6440"
2018-04-20T06:51:49.363Z," 5548"
2018-04-20T06:56:45.433Z," 5740"
2018-04-20T07:01:46.007Z," 6076"
2018-04-20T07:06:41.282Z," 6368"
2018-04-20T07:11:42.116Z," 6632"
2018-04-20T07:16:42.110Z," 6352"
2018-04-20T07:26:39.203Z," 7348"
2018-04-20T07:31:37.528Z,11060
2018-04-20T07:36:34.306Z,16068
2018-04-20T07:41:32.042Z," 9508"
2018-04-20T07:46:30.892Z,11612
2018-04-20T07:51:34.645Z," 7784"
2018-04-20T07:56:33.659Z,12756
2018-04-20T08:01:29.791Z,29312
2018-04-20T08:06:30.195Z,35104
2018-04-20T08:11:29.014Z,31200
2018-04-20T08:16:32.264Z,36832
2018-04-20T08:21:32.503Z,36768
2018-04-20T08:26:31.774Z,33856
2018-04-20T08:31:31.510Z,19616
2018-04-20T08:36:30.962Z,29056
2018-04-20T08:41:31.269Z,24032
2018-04-20T08:46:31.927Z,13092
2018-04-20T08:51:26.540Z," 9416"
2018-04-20T08:56:24.554Z," 9380"
2018-04-20T09:01:24.371Z,12808
2018-04-20T09:06:19.479Z,10200
2018-04-20T09:11:19.568Z,10952
2018-04-20T09:16:19.010Z,11332
2018-04-20T09:21:17.748Z,10204
2018-04-20T09:26:17.673Z,13044
2018-04-20T09:31:17.365Z," 9720"
2018-04-20T09:36:12.829Z,10704
2018-04-20T09:46:17.188Z,22272
2018-04-20T09:51:13.456Z,27424
2018-04-20T09:56:14.108Z,26016
2018-04-20T10:01:10.735Z,23168
2018-04-20T10:06:08.240Z,60512
2018-04-20T10:11:12.207Z,65600
2018-04-20T10:21:17.012Z,62592
2018-04-20T10:31:21.387Z,52064
2018-04-20T10:36:17.959Z,65248
2018-04-20T10:41:20.021Z,67008
2018-04-20T10:46:15.924Z,64992
2018-04-20T10:51:17.306Z,58880
2018-04-20T10:56:13.411Z,57824
2018-04-20T11:01:14.524Z,62048
2018-04-20T11:06:14.099Z,52256
2018-04-20T11:11:14.780Z,60384
2018-04-20T11:16:10.109Z,64704
2018-04-20T11:21:12.325Z,62944
2018-04-20T11:26:12.022Z,57664
2018-04-20T11:31:13.690Z,64224
2018-04-20T11:41:13.850Z,64608
2018-04-20T11:46:12.334Z,62528
2018-04-20T11:51:09.219Z,64256
2018-04-20T11:56:05.392Z,71424
2018-04-20T12:01:05.499Z,59232
2018-04-20T12:06:06.275Z,48768
2018-04-20T12:11:03.327Z,36384
2018-04-20T12:15:55.875Z,22272
2018-04-20T12:20:49.813Z,11244
2018-04-20T12:25:44.101Z,12240
2018-04-20T12:35:45.596Z," 9624"
2018-04-20T12:40:46.057Z,21952
2018-04-20T12:45:41.036Z,11452
2018-04-20T12:50:41.821Z,32864
2018-04-20T12:55:38.576Z,52416
2018-04-20T13:00:38.182Z,13404
2018-04-20T13:05:36.742Z,13540
2018-04-20T13:10:31.206Z," 8656"
2018-04-20T13:15:31.029Z,28192
2018-04-20T13:20:31.327Z,15304
2018-04-20T13:25:31.011Z," 6612"
2018-04-20T13:30:31.281Z," 6596"
2018-04-20T13:35:27.950Z," 9624"
2018-04-20T13:40:24.576Z," 8364"
2018-04-20T13:45:23.957Z," 5744"
2018-04-20T13:50:19.269Z," 5608"
2018-04-20T13:55:19.277Z," 5512"
2018-04-20T14:00:19.404Z," 5364"
2018-04-20T14:05:15.623Z," 5196"
2018-04-20T14:10:15.164Z," 4988"
2018-04-20T14:15:10.497Z," 4860"
2018-04-20T14:20:11.042Z," 4764"
2018-04-20T14:25:10.909Z," 4408"
2018-04-20T14:30:13.750Z," 4408"
2018-04-20T14:35:15.179Z," 4404"
2018-04-20T14:40:15.769Z," 4304"
2018-04-20T14:45:12.003Z," 4252"
2018-04-20T14:50:12.858Z," 4104"
2018-04-20T14:55:11.532Z," 4080"
2018-04-20T15:00:06.787Z," 4028"
2018-04-20T15:05:09.341Z," 3832"
2018-04-20T15:10:05.414Z," 3716"
2018-04-20T15:15:00.880Z," 3608"
2018-04-20T15:20:01.929Z," 3572"
2018-04-20T15:30:01.953Z," 3636"
2018-04-20T15:35:01.539Z," 3612"
2018-04-20T15:40:00.591Z," 3616"
2018-04-20T15:44:56.602Z," 3520"
2018-04-20T15:49:53.675Z," 3472"
2018-04-20T15:54:49.432Z," 3396"
2018-04-20T15:59:49.419Z," 3284"
2018-04-20T16:04:45.671Z," 3308"
2018-04-20T16:09:45.295Z," 3232"
2018-04-20T16:14:44.504Z," 3096"
2018-04-20T16:19:45.112Z," 2900"
2018-04-20T16:24:40.125Z," 2836"
2018-04-20T16:29:41.563Z," 2756"
2018-04-20T16:34:40.810Z," 2584"
2018-04-20T16:39:36.837Z," 2440"
2018-04-20T16:44:33.477Z," 2428"
2018-04-20T16:49:31.125Z," 2332"
2018-04-20T16:54:28.794Z," 2384"
2018-04-20T16:59:24.580Z," 2392"
2018-04-20T17:04:25.398Z," 2084"
2018-04-20T17:09:24.361Z," 1952"
2018-04-20T17:14:19.452Z," 2080"
2018-04-20T17:19:17.539Z," 1920"
2018-04-20T17:24:17.863Z," 1668"
2018-04-20T17:29:14.264Z," 1572"
2018-04-20T17:34:10.209Z," 1456"
2018-04-20T17:39:06.424Z," 1308"
2018-04-20T17:49:03.851Z,"  980"
2018-04-20T17:54:04.254Z,"  840"
2018-04-20T17:59:05.016Z,"  708"
2018-04-20T18:04:03.539Z,"  596"
2018-04-20T18:09:02.306Z,"  496"
2018-04-20T18:14:02.223Z,"  412"
2018-04-20T18:19:00.191Z,"  344"
2018-04-20T18:23:55.395Z,"  264"
2018-04-20T18:28:56.230Z,"  188"
2018-04-20T18:33:56.243Z,"  128"
2018-04-20T18:38:56.442Z,"   80"
2018-04-20T18:43:55.954Z,"   44"
2018-04-20T18:48:50.897Z,"   24"
2018-04-20T18:53:47.236Z,"   12"
2018-04-20T18:58:46.940Z,"    4"
2018-04-20T19:03:42.431Z,"    0"
2018-04-20T19:08:42.388Z,"    0"
2018-04-20T19:13:41.850Z,"    0"
2018-04-20T19:18:40.720Z,"    0"
2018-04-20T19:23:41.613Z,"    0"
2018-04-20T19:28:40.312Z,"    0"
2018-04-20T19:33:40.087Z,"    0"
2018-04-20T19:38:34.926Z,"    0"
2018-04-20T19:43:35.491Z,"    0"
2018-04-20T19:48:31.925Z,"    0"
2018-04-20T19:53:31.656Z,"    0"
2018-04-20T19:58:31.248Z,"    0"
2018-04-20T20:03:27.525Z,"    0"
2018-04-20T20:08:27.938Z,"    0"
2018-04-20T20:13:26.804Z,"    0"
2018-04-20T20:18:22.251Z,"    0"
2018-04-20T20:23:18.111Z,"    0"
2018-04-20T20:28:15.076Z,"    0"
2018-04-20T20:33:10.520Z,"    0"
2018-04-20T20:38:10.262Z,"    0"
2018-04-20T20:43:09.872Z,"    0"
2018-04-20T20:48:08.828Z,"    0"
2018-04-20T20:53:03.762Z,"    0"
2018-04-20T20:58:04.859Z,"    0"
2018-04-20T21:03:03.837Z,"    0"
2018-04-20T21:08:03.250Z,"    0"
2018-04-20T21:13:02.071Z,"    0"
2018-04-20T21:17:57.483Z,"    0"
2018-04-20T21:22:54.359Z,"    0"
2018-04-20T21:27:53.761Z,"    0"
2018-04-20T21:32:48.710Z,"    0"
2018-04-20T21:37:49.881Z,"    0"
2018-04-20T21:42:44.862Z,"    0"
2018-04-20T21:47:42.035Z,"    0"
2018-04-20T21:52:41.216Z,"    0"
2018-04-20T21:57:36.269Z,"    0"
2018-04-20T22:02:33.218Z,"    0"
2018-04-20T22:07:31.309Z,"    0"
2018-04-20T22:12:32.586Z,"    0"
2018-04-20T22:17:27.236Z,"    0"
2018-04-20T22:22:27.485Z,"    0"
2018-04-20T22:27:26.894Z,"    0"
2018-04-20T22:32:21.931Z,"    0"
2018-04-20T22:37:18.891Z,"    0"
2018-04-20T22:42:14.862Z,"    0"
2018-04-20T22:47:15.012Z,"    0"
2018-04-20T22:52:11.109Z,"    0"
2018-04-20T22:57:06.525Z,"    0"
2018-04-20T23:02:06.509Z,"    0"
2018-04-20T23:07:01.468Z,"    0"
2018-04-20T23:12:01.623Z,"    0"
2018-04-20T23:16:56.630Z,"    0"
2018-04-20T23:21:56.915Z,"    0"
2018-04-20T23:26:55.685Z,"    0"
2018-04-20T23:31:54.858Z,"    0"
2018-04-20T23:36:49.834Z,"    0"
2018-04-20T23:41:49.793Z,"    0"
2018-04-20T23:46:45.651Z,"    0"
2018-04-20T23:51:41.430Z,"    0"
2018-04-20T23:56:41.265Z,"    0"
